Time;durP1;ratioP1;P1;durP2;ratioP2;P2;SDS_P1;SDS_P2;PMS_P1;PMS_P2;Temp;Humidity;BMP_temperature;BMP_pressure;BME280_temperature;BME280_humidity;BME280_pressure;Samples;Min_cycle;Max_cycle;Signal;HPM_P1;HPM_P2
2022/07/08 00:01:37;;;;;;;829.05;667.95;;;;;;;-140.79;100.00;63287.88;5010500;28;20041;-54
2022/07/08 00:04:03;;;;;;;821.70;662.80;;;;;;;-140.79;100.00;63287.88;4974780;28;20820;-55
2022/07/08 00:06:29;;;;;;;808.85;645.45;;;;;;;-140.79;100.00;63287.88;4995233;28;20017;-54
2022/07/08 00:08:55;;;;;;;841.65;688.67;;;;;;;-140.79;100.00;63287.88;5000181;28;20034;-55
2022/07/08 00:11:20;;;;;;;839.60;682.70;;;;;;;-140.79;100.00;63287.88;5002423;28;20030;-53
2022/07/08 00:13:46;;;;;;;811.25;646.95;;;;;;;-140.79;100.00;63287.88;5001096;28;20022;-51
2022/07/08 00:16:11;;;;;;;803.85;636.75;;;;;;;-140.79;100.00;63287.88;4984730;28;20025;-58
2022/07/08 00:18:37;;;;;;;786.95;612.10;;;;;;;-140.79;100.00;63287.88;5004947;28;20056;-53
2022/07/08 00:21:02;;;;;;;833.72;676.45;;;;;;;-140.79;100.00;63287.88;5003236;28;20026;-60
2022/07/08 00:23:28;;;;;;;871.40;737.05;;;;;;;-140.79;100.00;63287.88;4989522;28;20029;-53
2022/07/08 00:25:53;;;;;;;914.53;784.67;;;;;;;-140.79;100.00;63287.88;5002690;28;20045;-51
2022/07/08 00:28:19;;;;;;;875.28;737.55;;;;;;;-140.79;100.00;63287.88;5001580;28;20447;-52
2022/07/08 00:30:44;;;;;;;857.92;715.65;;;;;;;-140.79;100.00;63287.88;5001535;28;20021;-50
2022/07/08 00:33:10;;;;;;;855.53;703.55;;;;;;;-140.79;100.00;63287.88;4984779;28;20148;-51
2022/07/08 00:35:35;;;;;;;848.65;702.63;;;;;;;-140.79;100.00;63287.88;5001265;28;20030;-51
2022/07/08 00:38:01;;;;;;;848.70;699.35;;;;;;;-140.79;100.00;63287.88;5000293;28;20638;-52
2022/07/08 00:40:27;;;;;;;871.22;735.17;;;;;;;-140.79;100.00;63287.88;5000846;28;20100;-53
2022/07/08 00:42:52;;;;;;;852.45;705.30;;;;;;;-140.79;100.00;63287.88;5000325;28;20044;-51
2022/07/08 00:45:18;;;;;;;865.40;716.17;;;;;;;-140.79;100.00;63287.88;5006051;28;20844;-53
2022/07/08 00:47:43;;;;;;;774.58;598.13;;;;;;;-140.79;100.00;63287.88;4999261;28;20653;-52
2022/07/08 00:50:10;;;;;;;766.05;585.33;;;;;;;-140.79;100.00;63287.88;5004299;28;20026;-54
2022/07/08 00:52:37;;;;;;;765.58;587.88;;;;;;;-140.79;100.00;63287.88;5005660;28;20044;-51
2022/07/08 00:55:03;;;;;;;783.33;610.13;;;;;;;-140.79;100.00;63287.88;4981687;28;20063;-51
2022/07/08 00:57:28;;;;;;;798.80;630.10;;;;;;;-140.79;100.00;63287.88;4978590;28;20528;-51
2022/07/08 00:59:54;;;;;;;764.03;583.38;;;;;;;-140.79;100.00;63287.88;4964768;28;20034;-51
2022/07/08 01:02:20;;;;;;;773.15;595.28;;;;;;;-140.79;100.00;63287.88;5010841;28;20492;-51
2022/07/08 01:04:46;;;;;;;767.60;587.65;;;;;;;-140.79;100.00;63287.88;5000978;28;20018;-50
2022/07/08 01:07:11;;;;;;;761.75;583.00;;;;;;;-140.79;100.00;63287.88;5005490;28;20429;-51
2022/07/08 01:09:37;;;;;;;785.10;613.95;;;;;;;-140.79;100.00;63287.88;4983451;28;20042;-53
2022/07/08 01:12:03;;;;;;;776.17;600.72;;;;;;;-140.79;100.00;63287.88;4998844;28;20059;-51
2022/07/08 01:14:29;;;;;;;785.70;610.30;;;;;;;-140.79;100.00;63287.88;4977961;28;20026;-52
2022/07/08 01:16:54;;;;;;;781.20;609.80;;;;;;;-140.79;100.00;63287.88;5000321;28;20104;-50
2022/07/08 01:19:20;;;;;;;790.00;617.13;;;;;;;-140.79;100.00;63287.88;5007746;28;20631;-55
2022/07/08 01:21:46;;;;;;;770.80;595.10;;;;;;;-140.79;100.00;63287.88;4982898;28;20033;-51
2022/07/08 01:24:11;;;;;;;754.65;570.95;;;;;;;-140.79;100.00;63287.88;5004926;28;20022;-55
2022/07/08 01:26:37;;;;;;;772.97;594.42;;;;;;;-140.79;100.00;63287.88;5000468;28;20864;-54
2022/07/08 01:29:02;;;;;;;783.08;600.22;;;;;;;-140.79;100.00;63287.88;4999643;28;20124;-51
2022/07/08 01:31:28;;;;;;;757.92;575.08;;;;;;;-140.79;100.00;63287.88;4987595;28;20444;-51
2022/07/08 01:33:53;;;;;;;728.00;536.50;;;;;;;-140.79;100.00;63287.88;5009275;28;20587;-51
2022/07/08 01:36:19;;;;;;;768.05;591.33;;;;;;;-140.79;100.00;63287.88;5010815;28;20163;-51
2022/07/08 01:38:44;;;;;;;777.08;599.90;;;;;;;-140.79;100.00;63287.88;4998677;28;20467;-52
2022/07/08 01:41:10;;;;;;;777.00;599.95;;;;;;;-140.79;100.00;63287.88;5000219;28;20060;-50
2022/07/08 01:43:35;;;;;;;784.75;613.25;;;;;;;-140.79;100.00;63287.88;4998818;28;20060;-51
2022/07/08 01:46:01;;;;;;;765.75;585.45;;;;;;;-140.79;100.00;63287.88;5000127;28;20100;-51
2022/07/08 01:48:27;;;;;;;764.08;588.08;;;;;;;-140.79;100.00;63287.88;4977742;28;20046;-53
2022/07/08 01:50:52;;;;;;;763.25;586.75;;;;;;;-140.79;100.00;63287.88;5002941;28;20091;-56
2022/07/08 01:53:18;;;;;;;751.20;570.15;;;;;;;-140.79;100.00;63287.88;4996788;28;20045;-55
2022/07/08 01:55:43;;;;;;;759.22;581.88;;;;;;;-140.79;100.00;63287.88;4977102;28;20121;-56
2022/07/08 01:58:08;;;;;;;760.85;583.45;;;;;;;-140.79;100.00;63287.88;4995143;28;20502;-53
2022/07/08 02:00:34;;;;;;;751.10;570.58;;;;;;;-140.79;100.00;63287.88;5008715;28;20045;-54
2022/07/08 02:03:00;;;;;;;768.72;592.53;;;;;;;-140.79;100.00;63287.88;5002297;28;20563;-54
2022/07/08 02:05:26;;;;;;;766.25;592.60;;;;;;;-140.79;100.00;63287.88;4998119;28;20064;-54
2022/07/08 02:07:52;;;;;;;761.22;587.08;;;;;;;-140.79;100.00;63287.88;4998500;28;20037;-51
2022/07/08 02:10:17;;;;;;;764.92;588.50;;;;;;;-140.79;100.00;63287.88;5000554;28;20513;-51
2022/07/08 02:12:43;;;;;;;768.35;594.80;;;;;;;-140.79;100.00;63287.88;5004299;28;20022;-56
2022/07/08 02:15:08;;;;;;;778.20;604.20;;;;;;;-140.79;100.00;63287.88;4999602;28;20116;-55
2022/07/08 02:17:36;;;;;;;755.08;578.42;;;;;;;-140.79;100.00;63287.88;5003325;28;20029;-55
2022/07/08 02:20:06;;;;;;;759.95;587.70;;;;;;;-140.79;100.00;63287.88;4971430;28;20026;-55
2022/07/08 02:22:32;;;;;;;767.42;593.17;;;;;;;-140.79;100.00;63287.88;4991695;28;20080;-52
2022/07/08 02:24:58;;;;;;;758.85;578.95;;;;;;;-140.79;100.00;63287.88;4998458;28;20485;-52
2022/07/08 02:27:23;;;;;;;756.22;574.58;;;;;;;-140.79;100.00;63287.88;5000632;28;20100;-54
2022/07/08 02:29:49;;;;;;;764.70;582.30;;;;;;;-140.79;100.00;63287.88;5004943;28;20071;-58
2022/07/08 02:32:15;;;;;;;754.88;572.42;;;;;;;-140.79;100.00;63287.88;5007538;28;20038;-57
2022/07/08 02:34:40;;;;;;;769.92;592.63;;;;;;;-140.79;100.00;63287.88;4984678;28;20040;-54
2022/07/08 02:37:06;;;;;;;766.20;589.40;;;;;;;-140.79;100.00;63287.88;4996217;28;20058;-57
2022/07/08 02:39:32;;;;;;;734.15;548.05;;;;;;;-140.79;100.00;63287.88;4990036;28;20068;-57
2022/07/08 02:41:57;;;;;;;752.80;576.50;;;;;;;-140.79;100.00;63287.88;5013216;28;20780;-56
2022/07/08 02:44:23;;;;;;;741.53;559.33;;;;;;;-140.79;100.00;63287.88;5004395;28;20143;-57
2022/07/08 02:46:48;;;;;;;769.60;598.47;;;;;;;-140.79;100.00;63287.88;4998148;28;20519;-57
2022/07/08 02:49:14;;;;;;;792.65;625.50;;;;;;;-140.79;100.00;63287.88;5000692;28;20036;-58
2022/07/08 02:51:40;;;;;;;782.28;609.88;;;;;;;-140.79;100.00;63287.88;5010981;28;20026;-58
2022/07/08 02:54:06;;;;;;;784.40;609.58;;;;;;;-140.79;100.00;63287.88;4978059;28;20100;-51
2022/07/08 02:56:32;;;;;;;768.38;584.97;;;;;;;-140.79;100.00;63287.88;5004989;28;20448;-50
2022/07/08 02:58:58;;;;;;;772.03;600.13;;;;;;;-140.79;100.00;63287.88;4993925;28;20423;-51
2022/07/08 03:01:24;;;;;;;767.72;590.85;;;;;;;-140.79;100.00;63287.88;5003930;28;20034;-52
2022/07/08 03:03:50;;;;;;;791.00;619.55;;;;;;;-140.79;100.00;63287.88;5001519;28;20119;-50
2022/07/08 03:06:15;;;;;;;789.92;619.75;;;;;;;-140.79;100.00;63287.88;4978385;28;20504;-51
2022/07/08 03:08:41;;;;;;;770.10;593.25;;;;;;;-140.79;100.00;63287.88;5001779;28;20037;-57
2022/07/08 03:11:07;;;;;;;793.78;626.50;;;;;;;-140.79;100.00;63287.88;5001350;28;20048;-58
2022/07/08 03:13:35;;;;;;;785.65;612.80;;;;;;;-140.79;100.00;63287.88;4992766;28;20034;-51
2022/07/08 03:16:00;;;;;;;782.60;613.22;;;;;;;-140.79;100.00;63287.88;4999736;28;20184;-51
2022/07/08 03:18:26;;;;;;;770.28;591.97;;;;;;;-140.79;100.00;63287.88;4979855;28;20118;-51
2022/07/08 03:20:51;;;;;;;765.17;589.47;;;;;;;-140.79;100.00;63287.88;4999620;28;20038;-52
2022/07/08 03:23:17;;;;;;;755.08;576.28;;;;;;;-140.79;100.00;63287.88;4984604;28;20492;-51
2022/07/08 03:25:42;;;;;;;757.08;578.63;;;;;;;-140.79;100.00;63287.88;4980606;28;20030;-51
2022/07/08 03:28:08;;;;;;;752.05;571.60;;;;;;;-140.79;100.00;63287.88;4984043;28;20128;-51
2022/07/08 03:30:34;;;;;;;745.60;562.72;;;;;;;-140.79;100.00;63287.88;4984057;28;20591;-51
2022/07/08 03:32:59;;;;;;;728.13;542.67;;;;;;;-140.79;100.00;63287.88;4990105;28;20432;-53
2022/07/08 03:35:25;;;;;;;743.30;560.97;;;;;;;-140.79;100.00;63287.88;4978907;28;20038;-52
2022/07/08 03:37:50;;;;;;;745.28;562.78;;;;;;;-140.79;100.00;63287.88;4985743;28;20083;-52
2022/07/08 03:43:00;;;;;;;768.42;595.22;;;;;;;-140.79;100.00;63287.88;4980916;28;20651;-52
2022/07/08 03:45:25;;;;;;;759.97;584.13;;;;;;;-140.79;100.00;63287.88;4985355;28;20124;-52
2022/07/08 03:47:51;;;;;;;779.65;607.58;;;;;;;-140.79;100.00;63287.88;4968888;28;20390;-52
2022/07/08 03:50:17;;;;;;;765.40;590.22;;;;;;;-140.79;100.00;63287.88;4985494;28;20353;-53
2022/07/08 03:52:44;;;;;;;777.13;604.92;;;;;;;-140.79;100.00;63287.88;4986374;28;20088;-51
2022/07/08 03:55:10;;;;;;;779.30;608.72;;;;;;;-140.79;100.00;63287.88;4987606;28;20669;-52
2022/07/08 03:57:35;;;;;;;778.83;605.85;;;;;;;-140.79;100.00;63287.88;4969961;28;20053;-52
2022/07/08 04:00:01;;;;;;;762.78;592.45;;;;;;;-140.79;100.00;63287.88;4993662;28;20161;-51
2022/07/08 04:02:26;;;;;;;774.25;605.53;;;;;;;-140.79;100.00;63287.88;5006293;28;20091;-52
2022/07/08 04:04:52;;;;;;;753.45;573.42;;;;;;;-140.79;100.00;63287.88;4995382;28;20018;-51
2022/07/08 04:07:18;;;;;;;747.65;570.17;;;;;;;-140.79;100.00;63287.88;4997353;28;20053;-52
2022/07/08 04:09:43;;;;;;;758.65;581.63;;;;;;;-140.79;100.00;63287.88;4998017;28;20133;-52
2022/07/08 04:12:09;;;;;;;754.30;578.63;;;;;;;-140.79;100.00;63287.88;4998828;28;20697;-51
2022/07/08 04:14:35;;;;;;;764.75;590.30;;;;;;;-140.79;100.00;63287.88;4993960;28;20030;-52
2022/07/08 04:17:02;;;;;;;750.17;570.00;;;;;;;-140.79;100.00;63287.88;4983827;28;20046;-53
2022/07/08 04:19:27;;;;;;;770.20;596.83;;;;;;;-140.79;100.00;63287.88;4994492;28;20033;-56
2022/07/08 04:21:53;;;;;;;763.13;584.80;;;;;;;-140.79;100.00;63287.88;4983693;28;20027;-53
2022/07/08 04:24:18;;;;;;;759.10;583.47;;;;;;;-140.79;100.00;63287.88;4983408;28;20089;-58
2022/07/08 04:26:44;;;;;;;759.60;579.40;;;;;;;-140.79;100.00;63287.88;4980058;28;20117;-51
2022/07/08 04:29:10;;;;;;;750.80;570.97;;;;;;;-140.79;100.00;63287.88;4982042;28;20034;-53
2022/07/08 04:31:35;;;;;;;713.75;520.45;;;;;;;-140.79;100.00;63287.88;4992377;28;20118;-56
2022/07/08 04:34:01;;;;;;;757.45;582.10;;;;;;;-140.79;100.00;63287.88;5001673;28;20673;-53
2022/07/08 04:36:26;;;;;;;765.67;586.13;;;;;;;-140.79;100.00;63287.88;4995739;28;20122;-52
2022/07/08 04:38:52;;;;;;;757.42;573.42;;;;;;;-140.79;100.00;63287.88;4995999;28;20042;-51
2022/07/08 04:41:17;;;;;;;775.00;593.88;;;;;;;-140.79;100.00;63287.88;4971975;28;20129;-51
2022/07/08 04:43:43;;;;;;;765.20;586.88;;;;;;;-140.79;100.00;63287.88;4995227;28;20701;-52
2022/07/08 04:46:10;;;;;;;775.60;593.72;;;;;;;-140.79;100.00;63287.88;4976263;28;20045;-53
2022/07/08 04:48:35;;;;;;;783.00;603.17;;;;;;;-140.79;100.00;63287.88;4994575;28;20022;-52
2022/07/08 04:51:01;;;;;;;769.42;591.05;;;;;;;-140.79;100.00;63287.88;4998715;28;20049;-53
2022/07/08 04:53:26;;;;;;;760.78;575.08;;;;;;;-140.79;100.00;63287.88;4999190;28;20022;-52
2022/07/08 04:55:52;;;;;;;763.83;583.45;;;;;;;-140.79;100.00;63287.88;5002108;28;20025;-53
2022/07/08 04:58:17;;;;;;;765.05;584.92;;;;;;;-140.79;100.00;63287.88;5001066;28;20029;-52
2022/07/08 05:00:43;;;;;;;774.10;593.22;;;;;;;-140.79;100.00;63287.88;5002074;28;20551;-52
2022/07/08 05:03:08;;;;;;;767.92;586.13;;;;;;;-140.79;100.00;63287.88;5002168;28;20037;-55
2022/07/08 05:05:34;;;;;;;776.92;597.08;;;;;;;-140.79;100.00;63287.88;5000173;28;20431;-51
2022/07/08 05:08:00;;;;;;;768.88;585.55;;;;;;;-140.79;100.00;63287.88;5001383;28;20507;-51
2022/07/08 05:10:25;;;;;;;754.30;570.05;;;;;;;-140.79;100.00;63287.88;5002197;28;20057;-52
2022/07/08 05:12:51;;;;;;;769.78;585.75;;;;;;;-140.79;100.00;63287.88;5001935;28;20037;-51
2022/07/08 05:15:17;;;;;;;774.05;589.70;;;;;;;-140.79;100.00;63287.88;5001187;28;20290;-51
2022/07/08 05:17:42;;;;;;;766.35;578.75;;;;;;;-140.79;100.00;63287.88;5002204;28;20485;-54
2022/07/08 05:20:09;;;;;;;766.53;581.00;;;;;;;-140.79;100.00;63287.88;5002223;28;20076;-51
2022/07/08 05:22:35;;;;;;;768.72;581.00;;;;;;;-140.79;100.00;63287.88;4999557;28;20084;-52
2022/07/08 05:25:01;;;;;;;759.20;568.42;;;;;;;-140.79;100.00;63287.88;5000233;28;20029;-54
2022/07/08 05:27:26;;;;;;;748.83;554.40;;;;;;;-140.79;100.00;63287.88;4999883;28;20018;-53
2022/07/08 05:29:52;;;;;;;766.63;568.53;;;;;;;-140.79;100.00;63287.88;5003233;28;20727;-53
2022/07/08 05:32:17;;;;;;;773.22;585.25;;;;;;;-140.79;100.00;63287.88;5003144;28;20037;-51
2022/07/08 05:34:44;;;;;;;774.58;585.58;;;;;;;-140.79;100.00;63287.88;5002702;28;20057;-53
2022/07/08 05:37:11;;;;;;;770.85;579.55;;;;;;;-140.79;100.00;63287.88;4984390;28;20069;-52
2022/07/08 05:39:36;;;;;;;785.15;593.55;;;;;;;-140.79;100.00;63287.88;4984416;28;20046;-54
2022/07/08 05:42:02;;;;;;;763.63;568.13;;;;;;;-140.79;100.00;63287.88;5001352;28;20069;-53
2022/07/08 05:44:27;;;;;;;789.95;600.35;;;;;;;-140.79;100.00;63287.88;5000997;28;20060;-53
2022/07/08 05:46:53;;;;;;;772.65;579.53;;;;;;;-140.79;100.00;63287.88;5001008;28;20037;-51
2022/07/08 05:49:19;;;;;;;754.88;553.80;;;;;;;-140.79;100.00;63287.88;5001255;28;20682;-53
2022/07/08 05:51:45;;;;;;;751.00;553.20;;;;;;;-140.79;100.00;63287.88;5000835;28;20041;-51
2022/07/08 05:54:11;;;;;;;752.03;551.83;;;;;;;-140.79;100.00;63287.88;4995052;28;20048;-51
2022/07/08 05:56:37;;;;;;;747.15;548.28;;;;;;;-140.79;100.00;63287.88;5000275;28;20034;-51
2022/07/08 05:59:02;;;;;;;724.90;521.80;;;;;;;-140.79;100.00;63287.88;5000611;28;20030;-53
2022/07/08 06:01:28;;;;;;;732.85;526.25;;;;;;;-140.79;100.00;63287.88;4987967;28;20042;-54
2022/07/08 06:03:53;;;;;;;735.42;528.13;;;;;;;-140.79;100.00;63287.88;4993988;28;20029;-52
2022/07/08 06:06:19;;;;;;;729.92;525.80;;;;;;;-140.79;100.00;63287.88;4998268;28;20505;-55
2022/07/08 06:08:44;;;;;;;748.38;545.90;;;;;;;-140.79;100.00;63287.88;4997159;28;20092;-61
2022/07/08 06:11:10;;;;;;;747.63;544.45;;;;;;;-140.79;100.00;63287.88;4992252;28;20398;-56
2022/07/08 06:13:35;;;;;;;757.50;552.85;;;;;;;-140.79;100.00;63287.88;4985352;28;20041;-55
2022/07/08 06:16:01;;;;;;;753.47;552.13;;;;;;;-140.79;100.00;63287.88;4993115;28;20022;-59
2022/07/08 06:18:26;;;;;;;757.55;557.85;;;;;;;-140.79;100.00;63287.88;4999835;28;20452;-54
2022/07/08 06:20:52;;;;;;;769.35;567.50;;;;;;;-140.79;100.00;63287.88;4981517;28;20511;-54
2022/07/08 06:23:17;;;;;;;760.75;558.50;;;;;;;-140.79;100.00;63287.88;4998228;28;20096;-56
2022/07/08 06:25:43;;;;;;;777.83;583.75;;;;;;;-140.79;100.00;63287.88;4999181;28;20705;-54
2022/07/08 06:28:09;;;;;;;761.28;559.60;;;;;;;-140.79;100.00;63287.88;4991834;28;20044;-52
2022/07/08 06:30:35;;;;;;;768.53;567.72;;;;;;;-140.79;100.00;63287.88;4977978;28;20033;-54
2022/07/08 06:33:00;;;;;;;747.30;544.55;;;;;;;-140.79;100.00;63287.88;4976822;28;20034;-56
2022/07/08 06:35:26;;;;;;;782.33;583.03;;;;;;;-140.79;100.00;63287.88;4989677;28;20029;-51
2022/07/08 06:37:53;;;;;;;779.78;579.83;;;;;;;-140.79;100.00;63287.88;4991899;28;20040;-54
2022/07/08 06:40:20;;;;;;;778.33;576.95;;;;;;;-140.79;100.00;63287.88;4989110;28;20045;-53
2022/07/08 06:42:47;;;;;;;787.95;590.45;;;;;;;-140.79;100.00;63287.88;4998857;28;20060;-53
2022/07/08 06:45:13;;;;;;;790.50;594.30;;;;;;;-140.79;100.00;63287.88;4977259;28;20073;-51
2022/07/08 06:47:39;;;;;;;787.63;589.90;;;;;;;-140.79;100.00;63287.88;4998206;28;20805;-53
2022/07/08 06:50:06;;;;;;;790.38;598.38;;;;;;;-140.79;100.00;63287.88;4999885;28;20026;-52
2022/07/08 06:52:32;;;;;;;788.67;591.85;;;;;;;-140.79;100.00;63287.88;4976038;28;20029;-52
2022/07/08 06:54:59;;;;;;;820.88;633.80;;;;;;;-140.79;100.00;63287.88;4999155;28;20493;-56
2022/07/08 06:57:24;;;;;;;825.35;641.67;;;;;;;-140.79;100.00;63287.88;4992472;28;20022;-53
2022/07/08 06:59:51;;;;;;;815.08;628.58;;;;;;;-140.79;100.00;63287.88;4984251;28;20040;-53
2022/07/08 07:02:16;;;;;;;834.05;645.10;;;;;;;-140.79;100.00;63287.88;4967100;28;20073;-56
2022/07/08 07:04:42;;;;;;;814.83;625.05;;;;;;;-140.79;100.00;63287.88;4980581;28;20219;-53
2022/07/08 07:07:07;;;;;;;816.55;621.92;;;;;;;-140.79;100.00;63287.88;4982185;28;20018;-52
2022/07/08 07:09:33;;;;;;;818.10;628.25;;;;;;;-140.79;100.00;63287.88;4983205;28;20034;-53
2022/07/08 07:11:58;;;;;;;843.42;658.20;;;;;;;-140.79;100.00;63287.88;4983564;28;20027;-52
2022/07/08 07:14:24;;;;;;;826.65;635.33;;;;;;;-140.79;100.00;63287.88;4994677;28;20030;-53
2022/07/08 07:16:49;;;;;;;816.33;622.40;;;;;;;-140.79;100.00;63287.88;4995379;28;20187;-53
2022/07/08 07:19:15;;;;;;;801.65;604.70;;;;;;;-140.79;100.00;63287.88;4997853;28;20033;-53
2022/07/08 07:21:40;;;;;;;790.65;591.10;;;;;;;-140.79;100.00;63287.88;4995410;28;20025;-51
2022/07/08 07:24:06;;;;;;;741.42;530.83;;;;;;;-140.79;100.00;63287.88;4996583;28;20664;-55
2022/07/08 07:26:32;;;;;;;754.72;548.35;;;;;;;-140.79;100.00;63287.88;4996699;28;20125;-51
2022/07/08 07:28:57;;;;;;;754.53;542.17;;;;;;;-140.79;100.00;63287.88;4989115;28;20103;-52
2022/07/08 07:31:23;;;;;;;770.80;564.83;;;;;;;-140.79;100.00;63287.88;4994766;28;20037;-53
2022/07/08 07:33:48;;;;;;;766.05;555.20;;;;;;;-140.79;100.00;63287.88;4996920;28;20561;-53
2022/07/08 07:36:13;;;;;;;758.25;547.40;;;;;;;-140.79;100.00;63287.88;4998642;28;20460;-55
2022/07/08 07:38:39;;;;;;;739.30;527.60;;;;;;;-140.79;100.00;63287.88;4999254;28;20061;-52
2022/07/08 07:41:04;;;;;;;742.47;529.40;;;;;;;-140.79;100.00;63287.88;4999651;28;20024;-52
2022/07/08 07:43:30;;;;;;;737.85;523.72;;;;;;;-140.79;100.00;63287.88;4998783;28;20052;-52
2022/07/08 07:45:55;;;;;;;752.60;542.05;;;;;;;-140.79;100.00;63287.88;4999293;28;20286;-52
2022/07/08 07:48:21;;;;;;;753.15;538.53;;;;;;;-140.79;100.00;63287.88;5001699;28;20099;-53
2022/07/08 07:50:46;;;;;;;763.78;552.50;;;;;;;-140.79;100.00;63287.88;4999168;28;20131;-55
2022/07/08 07:53:12;;;;;;;737.03;522.75;;;;;;;-140.79;100.00;63287.88;5001765;28;20033;-55
2022/07/08 07:55:37;;;;;;;733.08;518.15;;;;;;;-140.79;100.00;63287.88;4999533;28;20127;-53
2022/07/08 07:58:03;;;;;;;753.92;538.17;;;;;;;-140.79;100.00;63287.88;4999721;28;20064;-56
2022/07/08 08:00:28;;;;;;;755.13;541.53;;;;;;;-140.79;100.00;63287.88;4998962;28;20065;-55
2022/07/08 08:02:54;;;;;;;765.42;552.42;;;;;;;-140.79;100.00;63287.88;4999582;28;20030;-55
2022/07/08 08:05:19;;;;;;;771.38;560.42;;;;;;;-140.79;100.00;63287.88;4997577;28;20037;-54
2022/07/08 08:07:45;;;;;;;749.78;535.33;;;;;;;-140.79;100.00;63287.88;4989023;28;20491;-51
2022/07/08 08:10:11;;;;;;;757.88;542.47;;;;;;;-140.79;100.00;63287.88;4998655;28;20068;-56
2022/07/08 08:12:37;;;;;;;741.42;523.33;;;;;;;-140.79;100.00;63287.88;4994704;28;20465;-55
2022/07/08 08:15:03;;;;;;;745.65;528.47;;;;;;;-140.79;100.00;63287.88;4979842;28;20022;-52
2022/07/08 08:17:34;;;;;;;743.00;522.20;;;;;;;-140.79;100.00;63287.88;4996057;28;20030;-52
2022/07/08 08:19:59;;;;;;;727.03;503.75;;;;;;;-140.79;100.00;63287.88;4978398;28;20029;-54
2022/07/08 08:22:25;;;;;;;731.85;510.40;;;;;;;-140.79;100.00;63287.88;4995298;28;20037;-53
2022/07/08 08:24:50;;;;;;;723.40;504.10;;;;;;;-140.79;100.00;63287.88;4980021;28;20040;-55
2022/07/08 08:27:15;;;;;;;728.95;505.98;;;;;;;-140.79;100.00;63287.88;4994723;28;20018;-55
2022/07/08 08:29:41;;;;;;;766.55;554.50;;;;;;;-140.79;100.00;63287.88;4985275;28;20970;-57
2022/07/08 08:32:07;;;;;;;771.30;561.67;;;;;;;-140.79;100.00;63287.88;4994728;28;20060;-53
2022/07/08 08:34:32;;;;;;;784.38;575.15;;;;;;;-140.79;100.00;63287.88;4995582;28;20263;-58
2022/07/08 08:36:58;;;;;;;783.05;575.50;;;;;;;-140.79;100.00;63287.88;4997901;28;20041;-54
2022/07/08 08:39:23;;;;;;;790.65;583.03;;;;;;;-140.79;100.00;63287.88;5002826;28;20045;-58
2022/07/08 08:41:49;;;;;;;791.95;585.58;;;;;;;-140.79;100.00;63287.88;5003060;28;20516;-57
2022/07/08 08:44:14;;;;;;;825.03;626.83;;;;;;;-140.79;100.00;63287.88;5002368;28;20018;-56
2022/07/08 08:46:40;;;;;;;800.75;596.72;;;;;;;-140.79;100.00;63287.88;5001844;28;20608;-51
2022/07/08 08:49:05;;;;;;;867.17;685.38;;;;;;;-140.79;100.00;63287.88;4968139;28;20034;-59
2022/07/08 08:51:31;;;;;;;857.33;673.72;;;;;;;-140.79;100.00;63287.88;4974995;28;20029;-51
2022/07/08 08:53:58;;;;;;;889.75;714.90;;;;;;;-140.79;100.00;63287.88;5002785;28;20034;-53
2022/07/08 08:56:24;;;;;;;873.30;692.60;;;;;;;-140.79;100.00;63287.88;5002719;28;20101;-55
2022/07/08 08:58:49;;;;;;;873.13;692.67;;;;;;;-140.79;100.00;63287.88;4977652;28;20042;-57
2022/07/08 09:01:16;;;;;;;871.78;689.65;;;;;;;-140.79;100.00;63287.88;4980021;28;20030;-52
2022/07/08 09:03:41;;;;;;;854.45;669.92;;;;;;;-140.79;100.00;63287.88;4982876;28;20022;-54
2022/07/08 09:06:07;;;;;;;846.72;657.08;;;;;;;-140.79;100.00;63287.88;4995628;28;20088;-52
2022/07/08 09:08:33;;;;;;;843.10;649.10;;;;;;;-140.79;100.00;63287.88;5000936;28;20030;-52
2022/07/08 09:10:58;;;;;;;868.05;682.75;;;;;;;-140.79;100.00;63287.88;5002960;28;20460;-51
2022/07/08 09:13:25;;;;;;;887.40;704.92;;;;;;;-140.79;100.00;63287.88;4975974;28;20567;-54
2022/07/08 09:15:51;;;;;;;890.50;709.85;;;;;;;-140.79;100.00;63287.88;5003695;28;20026;-51
2022/07/08 09:18:17;;;;;;;870.03;679.05;;;;;;;-140.79;100.00;63287.88;5005566;28;20128;-52
2022/07/08 09:20:46;;;;;;;864.08;671.45;;;;;;;-140.79;100.00;63287.88;5005729;28;20412;-51
2022/07/08 09:23:23;;;;;;;853.13;658.33;;;;;;;-140.79;100.00;63287.88;5005803;28;20028;-54
2022/07/08 09:25:52;;;;;;;850.28;654.25;;;;;;;-140.79;100.00;63287.88;5003074;28;21011;-52
2022/07/08 09:28:37;;;;;;;879.50;697.03;;;;;;;-140.79;100.00;63287.88;5002400;28;20021;-54
2022/07/08 09:31:06;;;;;;;860.45;668.45;;;;;;;-140.79;100.00;63287.88;5002556;28;20037;-58
2022/07/08 09:33:32;;;;;;;871.10;678.08;;;;;;;-140.79;100.00;63287.88;4984209;28;20030;-56
2022/07/08 09:36:00;;;;;;;853.40;659.42;;;;;;;-140.79;100.00;63287.88;4984846;28;20524;-52
2022/07/08 09:38:26;;;;;;;832.55;628.63;;;;;;;-140.79;100.00;63287.88;4987104;28;20493;-52
2022/07/08 09:40:56;;;;;;;833.22;629.78;;;;;;;-140.79;100.00;63287.88;5003810;28;20014;-54
2022/07/08 09:43:22;;;;;;;852.00;658.20;;;;;;;-140.79;100.00;63287.88;5000521;28;20023;-55
2022/07/08 09:45:47;;;;;;;838.80;639.70;;;;;;;-140.79;100.00;63287.88;5001349;28;20033;-53
2022/07/08 09:48:12;;;;;;;854.42;656.35;;;;;;;-140.79;100.00;63287.88;5003326;28;20030;-53
2022/07/08 09:50:40;;;;;;;855.90;661.53;;;;;;;-140.79;100.00;63287.88;5002948;28;20476;-53
2022/07/08 09:53:15;;;;;;;864.45;672.97;;;;;;;-140.79;100.00;63287.88;5000286;28;20038;-53
2022/07/08 09:55:47;;;;;;;869.42;676.15;;;;;;;-140.79;100.00;63287.88;4991385;28;20030;-55
2022/07/08 09:58:13;;;;;;;864.60;669.13;;;;;;;-140.79;100.00;63287.88;4985233;28;20032;-57
2022/07/08 10:00:39;;;;;;;853.08;651.53;;;;;;;-140.79;100.00;63287.88;4985558;28;20054;-58
2022/07/08 10:03:05;;;;;;;840.00;633.97;;;;;;;-140.79;100.00;63287.88;4991524;28;20118;-56
2022/07/08 10:05:30;;;;;;;836.65;632.00;;;;;;;-140.79;100.00;63287.88;4992134;28;20504;-51
2022/07/08 10:07:56;;;;;;;826.05;615.17;;;;;;;-140.79;100.00;63287.88;4999495;28;20092;-53
2022/07/08 10:10:22;;;;;;;821.20;612.50;;;;;;;-140.79;100.00;63287.88;5001880;28;20032;-52
2022/07/08 10:12:47;;;;;;;852.50;651.78;;;;;;;-140.79;100.00;63287.88;4971663;28;20482;-51
2022/07/08 10:15:13;;;;;;;849.72;647.55;;;;;;;-140.79;100.00;63287.88;4977037;28;20030;-50
2022/07/08 10:17:42;;;;;;;860.00;661.22;;;;;;;-140.79;100.00;63287.88;4982925;28;20033;-53
2022/07/08 10:20:08;;;;;;;853.78;653.75;;;;;;;-140.79;100.00;63287.88;4966122;28;20037;-52
2022/07/08 10:22:33;;;;;;;839.80;633.92;;;;;;;-140.79;100.00;63287.88;4993225;28;20034;-52
2022/07/08 10:24:59;;;;;;;819.67;612.00;;;;;;;-140.79;100.00;63287.88;4983892;28;20025;-52
2022/07/08 10:27:24;;;;;;;827.03;618.33;;;;;;;-140.79;100.00;63287.88;4979155;28;20030;-53
2022/07/08 10:29:50;;;;;;;819.67;608.90;;;;;;;-140.79;100.00;63287.88;4999327;28;20033;-52
2022/07/08 10:32:23;;;;;;;810.15;598.35;;;;;;;-140.79;100.00;63287.88;4984146;28;20902;-52
2022/07/08 10:35:07;;;;;;;797.05;580.75;;;;;;;-140.79;100.00;63287.88;4974526;28;20018;-53
2022/07/08 10:37:48;;;;;;;791.65;576.17;;;;;;;-140.79;100.00;63287.88;5000709;28;20042;-52